createdAt,value
2024-03-26T00:02:58.478Z,5.032403523489939
2024-03-26T00:06:45.448Z,5.009150849412755
2024-03-26T00:10:05.744Z,4.982989460989938
2024-03-26T00:13:26.435Z,4.960528523489939
2024-03-26T00:21:30.449Z,4.975741925335576
2024-03-26T00:24:50.703Z,4.904165792785239
2024-03-26T00:28:11.068Z,4.883180841023494
2024-03-26T00:31:31.226Z,4.835371224832218
2024-03-26T00:34:50.924Z,4.8081375838926235
2024-03-26T00:38:10.959Z,4.7767132445469835
2024-03-26T00:43:28.889Z,4.6891411493288615
2024-03-26T00:46:48.333Z,4.620018875838925
2024-03-26T00:51:15.665Z,4.595499947567113
2024-03-26T00:54:36.023Z,4.562611419882551
2024-03-26T00:57:55.995Z,4.51491715604027
2024-03-26T01:01:15.969Z,4.496096371644293
2024-03-26T01:04:36.210Z,4.522687709731547
2024-03-26T01:15:10.494Z,4.413443791946311
2024-03-26T01:18:30.637Z,4.390985476090604
2024-03-26T01:29:01.869Z,4.295282351090601
2024-03-26T01:32:21.804Z,4.254817271392617
2024-03-26T01:37:35.155Z,4.195182728607382
2024-03-26T01:40:55.237Z,4.1582673552852345
2024-03-26T01:44:15.480Z,4.191706428271811
2024-03-26T01:47:35.602Z,4.1949821728187935
2024-03-26T01:50:55.427Z,4.158580641778523
2024-03-26T01:54:15.507Z,4.115263213087251
2024-03-26T01:57:36.141Z,4.06090341862416
2024-03-26T02:00:56.424Z,3.998662961409394
2024-03-26T02:04:16.168Z,3.9550663276006723
2024-03-26T02:07:36.100Z,3.9277081585570484
2024-03-26T02:10:56.199Z,3.9114434773489934
2024-03-26T02:14:15.851Z,3.8952705536912764
2024-03-26T02:18:42.432Z,3.8704186765939603
2024-03-26T02:22:02.710Z,3.838109532298657
2024-03-26T02:25:22.347Z,3.8348704907718103
2024-03-26T02:28:42.423Z,3.8147847630033564
2024-03-26T02:32:01.859Z,3.80112206375839
2024-03-26T02:35:21.737Z,3.7423487311241646
2024-03-26T02:38:42.092Z,3.712441013003355
2024-03-26T02:44:06.393Z,3.7202915268456382
2024-03-26T02:47:26.425Z,3.758694683305369
2024-03-26T02:50:46.435Z,3.772694263842285
2024-03-26T02:54:06.053Z,3.768221738674497
2024-03-26T02:57:26.418Z,3.7613071518456396
2024-03-26T03:00:47.006Z,3.764774276426176
2024-03-26T03:04:07.191Z,3.779370281040267
2024-03-26T03:07:26.905Z,3.783503303271813
2024-03-26T03:10:46.682Z,3.763644347734899
2024-03-26T03:16:40.758Z,3.6765257969798677
2024-03-26T03:22:42.216Z,3.661554897231541
2024-03-26T03:26:02.045Z,3.678549706375839
2024-03-26T03:29:21.826Z,3.6679648175335586
2024-03-26T03:32:42.376Z,3.6140624999999997
2024-03-26T03:36:02.256Z,3.6252857592281877
2024-03-26T03:39:22.347Z,3.6193306942114094
2024-03-26T03:45:03.587Z,3.5810009437919468
2024-03-26T03:50:55.599Z,3.591501940016778
2024-03-26T03:54:15.388Z,3.579528890520136
2024-03-26T03:57:35.225Z,3.594974307885906
2024-03-26T04:00:55.115Z,3.582002411912753
2024-03-26T04:04:15.262Z,3.558669777684562
2024-03-26T04:07:35.833Z,3.5823497797818815
2024-03-26T04:10:56.198Z,3.59820810612416
2024-03-26T04:14:16.668Z,3.606398122902683
2024-03-26T04:30:29.892Z,3.66881160864094
2024-03-26T04:33:49.715Z,3.6310363359899327
2024-03-26T04:37:09.275Z,3.6328583787751687
2024-03-26T04:45:28.878Z,3.7435271602349025
2024-03-26T04:48:48.926Z,3.761685979446307
2024-03-26T04:52:08.588Z,3.771081952600672
2024-03-26T04:55:28.650Z,3.8091075922818796
2024-03-26T04:58:49.000Z,3.7855665373322167
2024-03-26T05:02:09.190Z,3.7752857592281903
2024-03-26T05:05:29.640Z,3.8450909710570467
2024-03-26T05:08:49.649Z,3.8539940750838957
2024-03-26T05:12:08.733Z,3.862336147231546
2024-03-26T05:15:29.632Z,3.8455458263422817
2024-03-26T05:18:49.593Z,3.849916107382552
2024-03-26T05:22:10.079Z,3.8503263947147666
2024-03-26T05:27:21.893Z,3.9419515520134247
2024-03-26T05:30:42.161Z,3.9677616401006732
2024-03-26T05:34:03.520Z,4.028628355704699
2024-03-26T05:39:45.552Z,4.047350828439599
2024-03-26T05:47:48.277Z,4.063518508808723
2024-03-26T05:51:07.505Z,4.0846450293624175
2024-03-26T05:54:27.237Z,4.112366296140941
2024-03-26T05:57:47.214Z,4.148534500838925
2024-03-26T06:01:07.164Z,4.168974150587249
2024-03-26T06:04:27.449Z,4.23545249580537
2024-03-26T06:07:47.385Z,4.307499213506712
2024-03-26T06:11:07.547Z,4.364786073825502
2024-03-26T06:14:28.353Z,4.455114828020135
2024-03-26T06:17:48.314Z,4.563986472315436
2024-03-26T06:22:28.310Z,4.645695260067118
2024-03-26T06:25:48.277Z,4.6972892197986615
2024-03-26T06:29:08.209Z,4.774003775167787
2024-03-26T06:36:43.599Z,4.8291592386745
2024-03-26T06:42:57.939Z,4.943819473573829
2024-03-26T06:48:59.068Z,5.03454933934564
2024-03-26T06:52:20.608Z,5.07534212458054
2024-03-26T06:56:25.577Z,5.175568896812079
2024-03-26T06:59:45.824Z,5.257601457634223
2024-03-26T07:03:05.778Z,5.335393508808719
2024-03-26T07:06:26.242Z,5.440105914429527
2024-03-26T07:09:47.295Z,5.510262426593956
2024-03-26T07:13:06.629Z,5.585401373741609
2024-03-26T07:16:41.569Z,5.654001940016779
2024-03-26T07:28:34.899Z,6.108436451342281
2024-03-26T07:52:21.906Z,7.368621539429532
2024-03-26T07:55:42.082Z,7.4261141988255055
2024-03-26T08:02:18.399Z,7.391128355704699
2024-03-26T08:07:45.603Z,7.776478607382546
2024-03-26T08:11:05.234Z,7.981681260486588
2024-03-26T08:16:43.947Z,8.430695522231543
2024-03-26T08:20:03.699Z,8.68742659395972
2024-03-26T08:23:23.840Z,8.817302852348982
2024-03-26T08:26:43.927Z,8.678111891778519
2024-03-26T08:30:05.446Z,8.711418571728181
2024-03-26T08:33:25.966Z,8.823189754614093
2024-03-26T08:36:45.758Z,9.339603869546988
2024-03-26T08:40:06.147Z,9.93007419253356
2024-03-26T08:43:26.182Z,11.430375681627517
2024-03-26T08:46:46.475Z,12.21650718330536
2024-03-26T08:50:06.827Z,11.871119966442958
2024-03-26T08:53:27.504Z,11.640550283137587
2024-03-26T08:56:47.483Z,11.18162096266778
2024-03-26T09:00:07.112Z,10.379268036912755
2024-03-26T09:03:26.493Z,10.558554425335563
2024-03-26T09:06:46.029Z,10.937247011325512
2024-03-26T09:12:09.807Z,10.473027212667782
2024-03-26T09:15:30.169Z,10.073269714765097
2024-03-26T09:18:50.147Z,10.21374790268456
2024-03-26T09:22:09.917Z,10.226371119966442
2024-03-26T09:27:40.852Z,10.037842124580541
2024-03-26T09:31:00.822Z,10.046981176593965
2024-03-26T09:37:47.680Z,9.987317795721482
2024-03-26T09:41:07.961Z,10.126827286073825
2024-03-26T09:44:27.644Z,9.93026164010068
2024-03-26T09:47:47.559Z,9.888661388422824
2024-03-26T09:51:07.314Z,9.99328990142618
2024-03-26T09:54:27.290Z,9.796753093540273
2024-03-26T09:59:45.106Z,9.755981281459746
2024-03-26T10:03:04.998Z,9.615280253775172
2024-03-26T10:06:25.368Z,9.740462458053699
2024-03-26T10:09:45.813Z,9.72044358221477
2024-03-26T10:15:51.354Z,9.57678009647651
2024-03-26T10:19:10.685Z,9.58379692743289
2024-03-26T10:22:30.688Z,9.626899381291947
2024-03-26T10:25:49.913Z,9.668274171560402
2024-03-26T10:29:10.909Z,9.741622535654367
2024-03-26T10:32:32.649Z,9.734511325503357
2024-03-26T10:35:52.444Z,9.760874580536914
2024-03-26T10:39:12.157Z,10.071418833892618
2024-03-26T10:46:17.143Z,9.983775954278528
2024-03-26T11:02:10.475Z,10.702793361996637
2024-03-26T11:05:30.700Z,10.801866610738251
2024-03-26T11:09:46.643Z,10.667326447147637
2024-03-26T11:13:05.971Z,10.692094431627511
2024-03-26T11:17:25.472Z,10.549416684144292
2024-03-26T11:22:51.741Z,10.89831821518457
2024-03-26T11:28:09.274Z,11.098963139681219
2024-03-26T11:31:29.874Z,11.086735790687925
2024-03-26T11:34:49.941Z,10.998302485318792
2024-03-26T11:38:18.864Z,10.82254220847315
2024-03-26T11:41:39.192Z,10.70358903104026
2024-03-26T11:44:59.750Z,10.574621172399318
2024-03-26T11:48:19.695Z,10.57497902684563
2024-03-26T11:51:42.155Z,10.582421874999993
2024-03-26T11:55:03.406Z,10.510915216023484
2024-03-26T11:58:23.480Z,10.568481281459727
2024-03-26T12:01:43.634Z,10.616996119966434
2024-03-26T12:05:03.482Z,10.644658399748321
2024-03-26T12:08:23.835Z,10.61772100461409
2024-03-26T12:13:10.812Z,10.678845952181204
2024-03-26T12:16:34.316Z,10.631495123741601
2024-03-26T12:30:28.233Z,10.464190960570471
2024-03-26T12:33:48.032Z,10.446943162751674
2024-03-26T12:37:07.949Z,10.637704488255022
2024-03-26T12:40:28.953Z,10.72519662332214
2024-03-26T12:43:48.790Z,10.819347734899331
2024-03-26T12:47:08.647Z,10.91806837248322
2024-03-26T12:50:28.910Z,11.03153444840606
2024-03-26T12:53:48.872Z,10.948800597734895
2024-03-26T12:57:08.076Z,10.792913695469789
2024-03-26T13:00:27.765Z,10.759890153104024
2024-03-26T13:03:47.422Z,10.732450713087239
2024-03-26T13:07:07.275Z,10.730977348993287
2024-03-26T13:10:27.976Z,10.61306496434563
2024-03-26T13:13:50.037Z,10.591664481963084
2024-03-26T13:17:11.056Z,10.598302485318788
2024-03-26T13:20:31.197Z,10.553743708053688
2024-03-26T13:23:51.304Z,10.61834102348993
2024-03-26T13:27:11.562Z,10.687309930788581
2024-03-26T13:30:37.982Z,10.687902422399327
2024-03-26T13:36:18.066Z,10.681811031879187
2024-03-26T13:39:37.958Z,10.699913485738257
2024-03-26T13:42:58.341Z,10.751625419463084
2024-03-26T13:46:18.305Z,10.764253880033555
2024-03-26T13:49:38.683Z,10.780555264261741
2024-03-26T13:53:51.590Z,10.837843435402677
2024-03-26T13:57:12.213Z,10.880211828859059
2024-03-26T14:00:32.704Z,10.795558934563749
2024-03-26T14:03:52.944Z,10.727228397650999
2024-03-26T14:07:12.937Z,10.689314177852347
2024-03-26T14:10:33.008Z,10.644410654362417
2024-03-26T14:13:53.876Z,10.512809354026837
2024-03-26T14:17:13.647Z,10.480450398489932
2024-03-26T14:20:33.118Z,10.490162279781874
2024-03-26T14:23:53.232Z,10.457479551174487
2024-03-26T14:28:38.667Z,10.45633389261745
2024-03-26T14:31:58.613Z,10.449009018456358
2024-03-26T14:35:18.573Z,10.396198615771802
2024-03-26T14:38:38.953Z,10.340074454697982
2024-03-26T14:42:15.681Z,10.403907560822136
2024-03-26T14:47:41.105Z,10.430260329278518
2024-03-26T14:51:01.080Z,10.47377962458053
2024-03-26T14:54:20.935Z,10.516969903523483
2024-03-26T14:57:42.010Z,10.520375419463083
2024-03-26T15:01:01.580Z,10.556681260486576
2024-03-26T15:04:21.257Z,10.635833945050335
2024-03-26T15:07:41.195Z,10.665867502097312
2024-03-26T15:11:01.335Z,10.707100723573816
2024-03-26T15:14:21.623Z,10.740815069211402
2024-03-26T15:17:41.394Z,10.718482592281871
2024-03-26T15:21:00.954Z,10.660982067953022
2024-03-26T15:24:20.889Z,10.632206900167775
2024-03-26T15:27:41.031Z,10.60690934354026
2024-03-26T15:31:00.705Z,10.568510119546975
2024-03-26T15:34:21.176Z,10.575158609479853
2024-03-26T15:37:41.665Z,10.537235213926174
2024-03-26T15:41:02.039Z,10.496662646812082
2024-03-26T15:44:21.456Z,10.474674916107372
2024-03-26T15:47:53.178Z,10.456658976510052
2024-03-26T15:51:13.271Z,10.419570574664416
2024-03-26T15:54:33.028Z,10.409377621644287
2024-03-26T16:08:31.548Z,10.436347787332203
2024-03-26T16:11:51.490Z,10.418739513422807
2024-03-26T16:15:10.971Z,10.438986472315433
2024-03-26T16:18:33.106Z,10.458790373322135
2024-03-26T16:21:52.855Z,10.451422242030196
2024-03-26T16:25:12.931Z,10.460847053271804
2024-03-26T16:28:33.054Z,10.51264156879194
2024-03-26T16:48:54.515Z,10.406590813758383
2024-03-26T16:52:15.000Z,10.363740037751667
2024-03-26T16:59:42.395Z,10.303059458892626
2024-03-26T17:03:02.236Z,10.279422713926184
2024-03-26T17:06:22.227Z,10.281295878775172
2024-03-26T17:09:42.563Z,10.260334521812089
2024-03-26T17:13:02.525Z,10.243305631291944
2024-03-26T17:19:21.381Z,10.198963139681215
2024-03-26T17:22:41.150Z,10.176287227349002
2024-03-26T17:26:01.195Z,10.1704501363255
2024-03-26T17:30:22.161Z,10.139112311241613
2024-03-26T17:33:43.345Z,10.101536283557044
2024-03-26T17:37:03.621Z,10.070090971057045
2024-03-26T17:40:23.270Z,10.022745385906047
2024-03-26T17:45:07.556Z,9.957202967701349
2024-03-26T17:49:56.950Z,9.89462694001678
2024-03-26T17:59:34.647Z,9.822573668204702
2024-03-26T18:03:04.265Z,9.773115037751685
2024-03-26T18:06:36.274Z,9.754084521812086
2024-03-26T18:10:05.084Z,9.756082214765115
2024-03-26T18:14:26.483Z,9.739829330956379
2024-03-26T18:17:47.028Z,9.695176174496648
2024-03-26T18:21:07.100Z,9.643909920302018
2024-03-26T18:24:27.572Z,9.619364775587252
2024-03-26T18:29:03.689Z,9.593561241610741
2024-03-26T18:32:29.551Z,9.524336723993294
2024-03-26T18:35:56.179Z,9.527434196728189
2024-03-26T18:39:16.462Z,9.530628670302018
2024-03-26T18:42:37.235Z,9.485756606543621
2024-03-26T18:45:58.015Z,9.613909133808727
2024-03-26T18:49:18.189Z,9.751634595218125
2024-03-26T18:56:55.216Z,9.59456270973155
2024-03-26T19:08:46.765Z,9.477921822567124
2024-03-26T19:12:06.802Z,9.484732854446314
2024-03-26T19:15:27.677Z,9.468554687499998
2024-03-26T19:18:48.379Z,9.50775613464766
2024-03-26T19:22:08.407Z,9.52413616820471
2024-03-26T19:25:45.202Z,9.471825188758395
2024-03-26T19:29:05.229Z,9.386152474832226
2024-03-26T19:32:26.390Z,9.297282665687913
2024-03-26T19:35:47.195Z,9.228807938338926
2024-03-26T19:39:07.573Z,9.207138737416104
2024-03-26T19:42:28.118Z,9.190066589765099
2024-03-26T19:45:48.608Z,9.122734899328862
2024-03-26T19:58:54.752Z,9.033908347315434
2024-03-26T20:02:14.684Z,8.956378460570463
2024-03-26T20:06:04.851Z,8.950132393036908
2024-03-26T20:09:25.390Z,8.940457214765093
2024-03-26T20:12:45.282Z,8.91440462458053
2024-03-26T20:16:55.908Z,8.934625367030197
2024-03-26T20:20:15.768Z,8.917418204697977
2024-03-26T20:23:36.548Z,8.921598416526836
2024-03-26T20:26:56.380Z,8.955834469379187
2024-03-26T20:30:17.100Z,8.923870071308716
2024-03-26T20:33:55.661Z,8.844270396392615
2024-03-26T20:37:15.820Z,8.826697514681202
2024-03-26T20:40:37.020Z,8.857239670721468
2024-03-26T20:43:56.438Z,8.84909553271811
2024-03-26T20:47:16.516Z,8.816720847315427
2024-03-26T20:50:37.542Z,8.7725710465604
2024-03-26T20:53:57.160Z,8.813266830956373
2024-03-26T20:57:17.139Z,8.816111315016775
2024-03-26T21:00:37.291Z,8.79926987206375
2024-03-26T21:03:57.268Z,8.830744022650999
2024-03-26T21:07:17.434Z,8.822724412751672
2024-03-26T21:10:38.528Z,8.85947331166107
2024-03-26T21:13:59.047Z,8.836473626258385
2024-03-26T21:17:57.424Z,8.850262164429525
2024-03-26T21:21:17.413Z,8.859742030201344
2024-03-26T21:24:38.470Z,8.798542365771809
2024-03-26T21:28:03.717Z,8.68530437290268
2024-03-26T21:31:58.501Z,8.613615509647651
2024-03-26T21:35:19.991Z,8.60755688968121
2024-03-26T21:38:40.570Z,8.567740666946314
2024-03-26T21:43:15.134Z,8.513034815436246
2024-03-26T21:47:17.067Z,8.442827181208058
2024-03-26T21:51:59.602Z,8.405987835570473
2024-03-26T21:55:20.860Z,8.344362153942953
2024-03-26T21:58:41.361Z,8.324615929110733
2024-03-26T22:02:01.811Z,8.310406617030196
2024-03-26T22:05:21.900Z,8.297100461409391
2024-03-26T22:08:42.660Z,8.27995097525168
2024-03-26T22:12:03.166Z,8.252204802852358
2024-03-26T22:15:24.428Z,8.26008939807047
2024-03-26T22:19:45.167Z,8.262615352348995
2024-03-26T22:23:05.043Z,8.225808777265105
2024-03-26T22:26:24.530Z,8.176049968540273
2024-03-26T22:29:50.905Z,8.17065200293625
2024-03-26T22:33:11.000Z,8.144705589345648
2024-03-26T22:41:53.778Z,8.019434249161074
2024-03-26T22:45:13.655Z,7.945680841023499
2024-03-26T22:48:34.088Z,7.903604760906047
2024-03-26T22:51:54.625Z,7.8691983011745
2024-03-26T22:55:15.078Z,7.844038380872488
2024-03-26T23:09:58.600Z,7.719261220637587
2024-03-26T23:13:18.546Z,7.6942009228187915
2024-03-26T23:18:26.943Z,7.721846161912751
2024-03-26T23:22:04.860Z,7.721220899748324
2024-03-26T23:26:39.972Z,7.681757288171138
2024-03-26T23:30:00.140Z,7.647446518456376
2024-03-26T23:33:19.903Z,7.610432833473152
2024-03-26T23:36:40.254Z,7.576247902684559
2024-03-26T23:40:00.205Z,7.570586461828861
2024-03-26T23:43:20.567Z,7.539888317953019
2024-03-26T23:46:41.170Z,7.524360318791946
2024-03-26T23:50:01.271Z,7.504171036073822
2024-03-26T23:53:20.577Z,7.481183148070469
2024-03-26T23:56:40.348Z,7.478492030201343
